POINT GARDNER AK US NWS current weather conditions

sailwx.info

Wind from 140 at 26 knots gusting 34

Air temperature 11.8° C
Dewpoint 11.8° C

Last reported at 2020-Aug-05 05:03 UTC.
Time now 2020-Aug-05 05:49 UTC

Location: N 57°01' W 134°37'.
View on Google Maps.

See reports from other nearby stations

  
Tides and Currents Weather Stations Pressure Air Temp Water Temp Dewpoint Dewpoint Depression Visibility Wind Speed Wind Dir Waves Ship Positions
date/time (UTC)wind fromknots sea level pressurealtimeterstation pressurevisibilityair tempwater tempwave heightnotes
2020-Aug-05 05:03 140 26 gusting 34 11.8
2020-Aug-05 04:53 140 25 gusting 34 11.9
2020-Aug-05 04:43 130 24 gusting 32 11.9
2020-Aug-05 04:33 140 24 gusting 31 12.1
2020-Aug-05 04:23 140 24 gusting 31 12.5
2020-Aug-05 04:13 140 22 gusting 28 12.7
2020-Aug-05 04:03 140 20 gusting 28 12.6
2020-Aug-05 03:53 140 20 gusting 27 12.6
2020-Aug-05 03:43 140 21 gusting 28 12.8
2020-Aug-05 03:33 140 20 gusting 27 12.7
2020-Aug-05 03:23 140 20 gusting 29 12.8
2020-Aug-05 03:13 140 20 gusting 27 12.8
2020-Aug-05 03:03 130 19 gusting 26 12.9
2020-Aug-05 02:53 130 20 gusting 28 12.9
2020-Aug-05 02:43 140 22 gusting 29 12.9
2020-Aug-05 02:33 140 22 gusting 29 12.8
2020-Aug-05 02:23 140 18 gusting 26 12.6
2020-Aug-05 02:13 120 17 gusting 22 12.5
2020-Aug-05 02:03 130 17 gusting 22 12.6
2020-Aug-05 01:53 130 17 gusting 24 12.9
2020-Aug-05 01:44 130 13 gusting 18 12.4
2020-Aug-05 01:33 130 14 gusting 22 12.1
2020-Aug-05 01:23 140 13 gusting 20 12.2
2020-Aug-05 01:13 140 12 gusting 20 12.3
2020-Aug-05 01:03 140 11 gusting 20 12.3
2020-Aug-05 00:53 140 11 gusting 20 12.3
2020-Aug-05 00:43 140 7 gusting 15 12.3
2020-Aug-05 00:33 140 8 gusting 13 12.4
2020-Aug-05 00:23 140 7 gusting 13 12.4
2020-Aug-05 00:13 140 6 gusting 13 12.4
2020-Aug-04 23:53 140 6 gusting 12 12.2
2020-Aug-04 23:43 140 6 gusting 9 12.2
2020-Aug-04 23:33 140 6 gusting 12 12.2
2020-Aug-04 23:23 140 6 gusting 12 12.2
2020-Aug-04 23:13 140 6 gusting 12 12.2
2020-Aug-04 23:03 140 6 gusting 12 12.2
2020-Aug-04 22:53 140 7 gusting 13 12.3
2020-Aug-04 22:43 140 6 gusting 13 12.4
2020-Aug-04 22:33 140 6 gusting 12 12.6
2020-Aug-04 22:23 150 6 gusting 11 12.9
2020-Aug-04 22:13 140 6 gusting 11 13.0
2020-Aug-04 22:03 140 6 gusting 12 12.8
2020-Aug-04 21:53 140 5 gusting 9 12.7
2020-Aug-04 21:43 140 4 gusting 7 12.6
2020-Aug-04 21:33 140 5 gusting 12 12.6
2020-Aug-04 21:23 140 4 gusting 8 12.8
2020-Aug-04 21:13 130 4 gusting 6 12.9
2020-Aug-04 21:03 130 4 gusting 6 12.8
2020-Aug-04 20:53 130 5 gusting 9 12.7
2020-Aug-04 20:43 130 5 gusting 11 12.6
2020-Aug-04 20:33 130 6 gusting 11 12.3
2020-Aug-04 20:23 120 9 gusting 13 12.2
2020-Aug-04 20:13 120 11 gusting 13 12.2
2020-Aug-04 20:03 120 11 gusting 14 12.2
2020-Aug-04 19:53 120 11 gusting 15 12.2
2020-Aug-04 19:43 120 11 gusting 14 12.3
2020-Aug-04 19:33 120 11 gusting 14 12.2
2020-Aug-04 19:23 120 11 gusting 18 12.2
2020-Aug-04 19:13 120 12 gusting 17 12.2
2020-Aug-04 19:03 120 12 gusting 15 12.2
2020-Aug-04 18:53 120 11 gusting 14 12.0
2020-Aug-04 18:43 120 8 gusting 11 12.0
2020-Aug-04 18:33 120 6 gusting 11 12.3
2020-Aug-04 18:23 120 4 gusting 7 12.3
2020-Aug-04 18:13 120 5 gusting 7 12.3
2020-Aug-04 18:03 120 4 gusting 7 12.3
2020-Aug-04 17:53 130 5 gusting 9 12.4
2020-Aug-04 17:43 130 6 gusting 11 12.4
2020-Aug-04 17:33 130 5 gusting 9 12.4
2020-Aug-04 17:23 120 5 gusting 8 12.5
2020-Aug-04 17:13 120 4 gusting 8 12.4
2020-Aug-04 17:03 140 5 gusting 11 12.4
2020-Aug-04 16:53 130 5 gusting 8 12.4
2020-Aug-04 16:43 130 4 gusting 8 12.3
2020-Aug-04 16:33 130 6 gusting 13 12.4
2020-Aug-04 16:23 130 6 gusting 12 12.3
2020-Aug-04 16:13 130 6 gusting 12 12.4
2020-Aug-04 16:03 130 6 gusting 13 12.4
2020-Aug-04 15:53 140 6 gusting 13 12.3
2020-Aug-04 15:43 130 6 gusting 11 12.2
2020-Aug-04 15:33 140 6 gusting 12 12.2
2020-Aug-04 15:23 140 6 gusting 13 12.2
2020-Aug-04 15:13 130 6 gusting 13 12.2
2020-Aug-04 15:03 130 6 gusting 13 12.3
2020-Aug-04 14:53 130 6 gusting 13 12.2
2020-Aug-04 14:43 130 8 gusting 15 12.2
2020-Aug-04 14:33 140 7 gusting 13 12.2
2020-Aug-04 14:23 140 7 gusting 14 12.2
2020-Aug-04 14:13 140 9 gusting 20 12.3
2020-Aug-04 13:53 140 9 gusting 18 12.2
2020-Aug-04 13:43 140 8 gusting 18 12.2
2020-Aug-04 13:33 140 8 gusting 17 12.2
2020-Aug-04 13:23 140 8 gusting 18 12.2
2020-Aug-04 13:13 140 8 gusting 15 12.2
2020-Aug-04 13:03 140 8 gusting 19 12.2
2020-Aug-04 12:53 140 8 gusting 18 12.2
2020-Aug-04 12:43 140 8 gusting 18 12.2
2020-Aug-04 12:33 140 8 gusting 17 12.2
2020-Aug-04 12:23 140 8 gusting 15 12.2
2020-Aug-04 12:13 140 8 gusting 15 12.2
2020-Aug-04 12:03 140 8 gusting 17 12.2
2020-Aug-04 11:53 140 8 gusting 15 12.2
2020-Aug-04 11:43 140 9 gusting 17 12.2
2020-Aug-04 11:33 140 8 gusting 19 12.2
2020-Aug-04 11:23 140 9 gusting 19 12.2
2020-Aug-04 11:13 140 9 gusting 17 12.2
2020-Aug-04 11:03 140 11 gusting 21 12.2
2020-Aug-04 10:53 140 8 gusting 18 12.1
2020-Aug-04 10:43 140 8 gusting 19 12.1
2020-Aug-04 10:33 140 8 gusting 18 12.1
2020-Aug-04 10:23 140 9 gusting 18 12.1
2020-Aug-04 10:13 140 8 gusting 15 12.1
2020-Aug-04 10:03 140 9 gusting 17 12.1
2020-Aug-04 09:53 140 9 gusting 19 12.0
2020-Aug-04 09:43 140 9 gusting 18 12.0
2020-Aug-04 09:33 140 7 gusting 17 12.0
2020-Aug-04 09:23 140 8 gusting 19 11.9
2020-Aug-04 09:13 140 9 gusting 19 12.0
2020-Aug-04 09:03 140 9 gusting 17 12.1
2020-Aug-04 08:53 140 8 gusting 17 12.1
2020-Aug-04 08:43 140 7 gusting 15 12.1
2020-Aug-04 08:33 140 6 gusting 13 12.2
2020-Aug-04 08:23 150 6 gusting 11 12.2
2020-Aug-04 08:13 140 6 gusting 13 12.2
2020-Aug-04 08:03 140 6 gusting 13 12.0
2020-Aug-04 07:53 140 6 gusting 11 11.5
2020-Aug-04 07:43 130 6 gusting 9 11.6
2020-Aug-04 07:33 130 7 gusting 11 11.6
2020-Aug-04 07:23 130 7 gusting 12 11.8
2020-Aug-04 07:13 130 9 gusting 13 11.9
2020-Aug-04 07:03 130 12 gusting 15 11.9
2020-Aug-04 06:53 130 12 gusting 15 11.8
2020-Aug-04 06:43 130 12 gusting 15 11.6
2020-Aug-04 06:33 120 13 gusting 15 11.6
2020-Aug-04 06:23 130 13 gusting 17 11.9
2020-Aug-04 06:13 130 12 gusting 15 11.9
2020-Aug-04 06:03 120 12 gusting 15 11.9
2020-Aug-04 05:53 130 14 gusting 21 12.2
2020-Aug-04 05:43 130 12 gusting 18 12.3
2020-Aug-04 05:33 130 13 gusting 17 12.3
2020-Aug-04 05:23 130 14 gusting 20 12.3
2020-Aug-04 05:13 130 14 gusting 21 12.3
2020-Aug-04 05:03 130 14 gusting 20 12.2
2020-Aug-04 04:53 130 14 gusting 20 12.3
2020-Aug-04 04:43 130 14 gusting 20 12.2
2020-Aug-04 04:33 130 15 gusting 20 12.2
2020-Aug-04 04:23 140 15 gusting 20 12.2
2020-Aug-04 04:13 140 15 gusting 20 12.2
2020-Aug-04 04:03 140 14 gusting 20 12.2
2020-Aug-04 03:53 140 15 gusting 20 12.3
2020-Aug-04 03:43 140 15 gusting 21 12.3
2020-Aug-04 03:33 140 14 gusting 19 12.3
2020-Aug-04 03:23 140 15 gusting 21 12.2
2020-Aug-04 03:13 140 14 gusting 20 12.2
2020-Aug-04 03:03 140 17 gusting 24 12.3
2020-Aug-04 02:53 150 17 gusting 21 12.3
2020-Aug-04 02:43 140 14 gusting 20 12.3
2020-Aug-04 02:33 140 17 gusting 21 12.4
2020-Aug-04 02:23 140 14 gusting 19 12.4
2020-Aug-04 02:13 140 13 gusting 19 12.3
2020-Aug-04 02:03 140 15 gusting 20 12.3
2020-Aug-04 01:53 140 17 gusting 21 12.4
2020-Aug-04 01:43 140 18 gusting 22 12.5
2020-Aug-04 01:33 150 18 gusting 22 12.4
2020-Aug-04 01:23 140 17 gusting 21 12.5
2020-Aug-04 01:13 150 17 gusting 22 12.4
2020-Aug-04 01:03 140 17 gusting 21 12.4
2020-Aug-04 00:53 150 17 gusting 22 12.5
2020-Aug-04 00:43 140 15 gusting 20 12.5
2020-Aug-04 00:33 140 15 gusting 20 12.5
2020-Aug-04 00:23 140 15 gusting 20 12.6
2020-Aug-04 00:13 140 15 gusting 20 12.7
2020-Aug-03 23:53 140 13 gusting 17 12.7
2020-Aug-03 23:43 140 13 gusting 20 12.7
2020-Aug-03 23:33 130 13 gusting 18 12.7
2020-Aug-03 23:23 130 13 gusting 17 12.5
2020-Aug-03 23:13 130 13 gusting 19 12.4
2020-Aug-03 23:03 140 15 gusting 21 12.4
2020-Aug-03 22:53 130 14 gusting 20 12.5
2020-Aug-03 22:43 130 11 gusting 14 12.5
2020-Aug-03 22:23 120 9 gusting 13 12.5
2020-Aug-03 22:13 120 7 gusting 12 12.4
2020-Aug-03 22:03 130 6 gusting 12 12.5
2020-Aug-03 21:53 120 5 gusting 8 12.6
2020-Aug-03 21:43 120 6 gusting 9 12.6
2020-Aug-03 21:33 120 6 gusting 6 12.6
2020-Aug-03 21:23 120 6 gusting 7 12.6
2020-Aug-03 21:13 130 6 gusting 9 12.6
2020-Aug-03 21:03 130 6 gusting 11 12.7
2020-Aug-03 20:53 130 7 gusting 11 12.8
2020-Aug-03 20:43 130 6 gusting 9 13.0
2020-Aug-03 20:33 130 6 gusting 9 12.9
2020-Aug-03 20:23 130 6 gusting 8 12.8
2020-Aug-03 20:13 130 6 gusting 8 12.8
2020-Aug-03 20:03 130 6 gusting 8 12.4
2020-Aug-03 19:53 130 6 gusting 8 12.2
2020-Aug-03 19:43 130 6 gusting 8 12.0
2020-Aug-03 19:33 130 6 gusting 9 12.0
2020-Aug-03 19:23 130 7 gusting 11 11.9
2020-Aug-03 19:13 120 7 gusting 9 12.0
2020-Aug-03 19:03 140 6 gusting 11 12.2
2020-Aug-03 18:53 130 6 gusting 8 12.2
2020-Aug-03 18:43 130 6 gusting 6 12.1
2020-Aug-03 18:33 120 6 gusting 6 12.3
2020-Aug-03 18:23 130 5 gusting 6 12.4
2020-Aug-03 18:13 140 4 gusting 5 12.3
2020-Aug-03 18:03 130 2 gusting 4 12.2
2020-Aug-03 17:53 140 2 gusting 5 12.1
2020-Aug-03 17:43 140 2 gusting 5 12.2
2020-Aug-03 17:33 140 4 gusting 5 12.2
2020-Aug-03 17:23 140 4 gusting 5 12.1
2020-Aug-03 17:13 120 2 gusting 5 11.9
2020-Aug-03 17:03 140 4 gusting 5 11.7
2020-Aug-03 16:53 140 4 gusting 5 11.8
2020-Aug-03 16:43 130 4 gusting 6 11.9
2020-Aug-03 16:33 130 4 gusting 6 12.0
2020-Aug-03 16:23 130 4 gusting 6 12.1
2020-Aug-03 16:13 140 4 gusting 5 11.8
2020-Aug-03 16:03 150 5 gusting 6 12.2
2020-Aug-03 15:53 140 4 gusting 5 12.3
2020-Aug-03 15:43 140 2 gusting 5 12.5
2020-Aug-03 15:33 130 2 gusting 4 12.4
2020-Aug-03 15:23 130 2 gusting 4 12.4
2020-Aug-03 15:13 130 4 gusting 6 12.3
2020-Aug-03 15:03 140 4 gusting 6 12.5
2020-Aug-03 14:53 130 2 gusting 4 12.5
2020-Aug-03 14:43 130 2 gusting 6 12.7
2020-Aug-03 14:33 160 0 gusting 1 13.1
2020-Aug-03 14:23 13.3
2020-Aug-03 14:13 13.0
2020-Aug-03 14:03 13.0
2020-Aug-03 13:53 13.3
2020-Aug-03 13:43 13.3
2020-Aug-03 13:33 13.1
2020-Aug-03 13:23 12.9
2020-Aug-03 13:13 12.8
2020-Aug-03 12:53 100 0 gusting 2 12.6
2020-Aug-03 12:43 100 0 gusting 2 12.4
2020-Aug-03 12:33 100 1 gusting 1 12.1
2020-Aug-03 12:23 130 1 gusting 5 11.7
2020-Aug-03 12:13 120 2 gusting 5 11.6
2020-Aug-03 12:03 120 4 gusting 6 11.7
2020-Aug-03 11:53 130 4 gusting 6 12.0
2020-Aug-03 11:43 120 1 gusting 5 12.2
2020-Aug-03 11:33 100 2 gusting 6 12.3
2020-Aug-03 11:23 120 2 gusting 6 12.3
2020-Aug-03 11:13 120 2 gusting 6 12.4
2020-Aug-03 11:03 120 4 gusting 6 12.6
2020-Aug-03 10:53 130 5 gusting 7 12.8
2020-Aug-03 10:43 130 4 gusting 7 12.8
2020-Aug-03 10:33 130 2 gusting 6 12.8
2020-Aug-03 10:23 130 4 gusting 6 12.8
2020-Aug-03 10:13 130 2 gusting 6 12.8
2020-Aug-03 10:03 120 1 gusting 6 12.9
2020-Aug-03 09:53 110 0 gusting 2 12.9
2020-Aug-03 09:43 12.9
2020-Aug-03 09:33 110 0 gusting 2 12.7
2020-Aug-03 09:23 120 2 gusting 6 12.6
2020-Aug-03 09:13 120 4 gusting 6 12.6
2020-Aug-03 09:03 130 6 gusting 8 12.6
2020-Aug-03 08:53 130 6 gusting 7 12.6
2020-Aug-03 08:44 120 6 gusting 8 12.6
2020-Aug-03 08:33 120 6 gusting 8 12.6
2020-Aug-03 08:23 110 6 gusting 7 12.5
2020-Aug-03 08:13 120 5 gusting 7 12.5
2020-Aug-03 08:03 120 4 gusting 6 12.7
2020-Aug-03 07:53 130 2 gusting 5 12.7
2020-Aug-03 07:43 110 1 gusting 5 12.7
2020-Aug-03 07:33 120 2 gusting 4 12.6
2020-Aug-03 07:23 110 2 gusting 6 12.5
2020-Aug-03 07:13 110 2 gusting 5 12.5
2020-Aug-03 07:03 110 4 gusting 6 12.5
2020-Aug-03 06:53 130 5 gusting 8 12.5
2020-Aug-03 06:43 120 6 gusting 9 12.5
2020-Aug-03 06:33 120 5 gusting 8 12.6
2020-Aug-03 06:23 130 4 gusting 7 12.7
2020-Aug-03 06:13 130 5 gusting 6 12.7
2020-Aug-03 06:03 130 5 gusting 9 12.8
2020-Aug-03 05:53 130 6 gusting 11 12.8
2020-Aug-03 05:43 120 4 gusting 7 12.9
2020-Aug-03 05:33 130 4 gusting 6 13.0
2020-Aug-03 05:23 120 2 gusting 6 13.0
2020-Aug-03 05:13 120 2 gusting 6 13.0
2020-Aug-03 05:03 120 1 gusting 6 13.0